Terminal Aerodrome Forecast
Issued by NWS Omaha/Valley, NE

Home | Current Version | Previous Version | Text Only | Print | Product List | Glossary On
Versions: 1 2 3 4 5 6 7 8 9 10 11 12 13 14 15 16 17 18 19 20 21 22 23 24 25 26 27 28 29 30 31 32 33 34 35 36 37 38 39 40
000
FTUS43 KOAX 011807 AAA
TAFLNK
TAF AMD
KLNK 011807Z 0118/0218 VRB03KT P6SM SCT010
     FM020000 02005KT P6SM SCT050 SCT250
     FM020600 01006KT P6SM BKN025
      TEMPO 0206/0209 5SM -TSRA OVC025CB
     FM020900 01007KT 4SM -DZ BR OVC007
     FM021200 36009KT 2SM -SHRA BR SCT001 OVC005=

USA.gov is the U.S. government's official web portal to all federal, state and local government web resources and services.